createdAt,value
2019-03-28T00:01:29.375Z,4.86
2019-03-28T00:03:56.066Z,4.84
2019-03-28T00:06:23.185Z,4.85
2019-03-28T00:08:50.533Z,4.82
2019-03-28T00:11:17.461Z,4.82
2019-03-28T00:13:44.174Z,4.78
2019-03-28T00:16:10.860Z,4.73
2019-03-28T00:18:37.475Z,4.58
2019-03-28T00:21:04.152Z,4.59
2019-03-28T00:23:32.650Z,4.70
2019-03-28T00:25:59.338Z,4.76
2019-03-28T00:28:26.046Z,4.74
2019-03-28T00:30:52.771Z,4.65
2019-03-28T00:33:19.356Z,4.64
2019-03-28T00:35:46.082Z,4.71
2019-03-28T00:38:12.771Z,4.71
2019-03-28T00:40:39.487Z,4.60
2019-03-28T00:43:06.192Z,4.61
2019-03-28T00:45:32.904Z,4.71
2019-03-28T00:47:59.507Z,4.60
2019-03-28T00:50:26.183Z,4.57
2019-03-28T00:52:52.847Z,4.61
2019-03-28T00:55:19.567Z,4.61
2019-03-28T00:57:46.259Z,4.67
2019-03-28T01:00:13.384Z,4.75
2019-03-28T01:02:40.010Z,4.87
2019-03-28T01:05:07.031Z,4.88
2019-03-28T01:07:33.763Z,5.00
2019-03-28T01:10:00.436Z,5.14
2019-03-28T01:12:27.381Z,5.11
2019-03-28T01:14:54.345Z,5.04
2019-03-28T01:17:20.955Z,5.07
2019-03-28T01:19:47.634Z,5.24
2019-03-28T01:22:15.396Z,5.26
2019-03-28T01:24:42.082Z,5.28
2019-03-28T01:27:08.763Z,5.24
2019-03-28T01:29:35.527Z,5.24
2019-03-28T01:32:02.366Z,5.25
2019-03-28T01:34:29.188Z,5.25
2019-03-28T01:36:55.843Z,5.34
2019-03-28T01:39:22.551Z,5.41
2019-03-28T01:41:49.267Z,5.43
2019-03-28T01:44:15.991Z,5.35
2019-03-28T01:46:42.616Z,5.31
2019-03-28T01:49:09.299Z,5.49
2019-03-28T01:51:36.085Z,5.54
2019-03-28T01:54:03.359Z,5.44
2019-03-28T01:56:30.293Z,5.50
2019-03-28T01:58:57.151Z,5.53
2019-03-28T02:01:23.741Z,5.53
2019-03-28T02:03:50.382Z,5.56
2019-03-28T02:06:17.043Z,5.64
2019-03-28T02:08:43.658Z,5.64
2019-03-28T02:11:10.408Z,5.63
2019-03-28T02:13:37.101Z,5.61
2019-03-28T02:16:03.750Z,5.63
2019-03-28T02:18:31.401Z,5.62
2019-03-28T02:20:58.083Z,5.52
2019-03-28T02:23:24.805Z,5.47
2019-03-28T02:25:51.533Z,5.44
2019-03-28T02:28:18.227Z,5.47
2019-03-28T02:30:44.811Z,5.46
2019-03-28T02:33:11.469Z,5.48
2019-03-28T02:35:38.129Z,5.49
2019-03-28T02:38:04.831Z,5.53
2019-03-28T02:40:31.479Z,5.50
2019-03-28T02:42:58.289Z,5.53
2019-03-28T02:45:24.971Z,5.65
2019-03-28T02:47:51.620Z,5.63
2019-03-28T02:50:18.312Z,5.60
2019-03-28T02:52:44.961Z,5.56
2019-03-28T02:55:11.614Z,5.57
2019-03-28T02:57:41.744Z,5.55
2019-03-28T03:00:07.554Z,5.53
2019-03-28T03:02:35.306Z,5.51
2019-03-28T03:05:01.999Z,5.49
2019-03-28T03:07:28.645Z,5.63
2019-03-28T03:09:55.273Z,5.58
2019-03-28T03:12:22.088Z,5.60
2019-03-28T03:14:48.866Z,5.56
2019-03-28T03:17:15.921Z,5.55
2019-03-28T03:19:43.014Z,5.52
2019-03-28T03:22:09.617Z,5.47
2019-03-28T03:24:36.302Z,5.55
2019-03-28T03:27:02.973Z,5.52
2019-03-28T03:29:29.660Z,5.43
2019-03-28T03:31:56.386Z,5.31
2019-03-28T03:34:23.114Z,5.27
2019-03-28T03:36:49.752Z,5.48
2019-03-28T03:39:16.471Z,5.61
2019-03-28T03:41:43.175Z,5.63
2019-03-28T03:44:09.811Z,5.54
2019-03-28T03:46:36.499Z,5.59
2019-03-28T03:49:03.186Z,5.63
2019-03-28T03:51:29.801Z,5.50
2019-03-28T03:53:56.434Z,5.65
2019-03-28T03:56:23.149Z,5.69
2019-03-28T03:58:49.750Z,5.65
2019-03-28T04:01:16.404Z,5.60
2019-03-28T04:03:43.099Z,5.63
2019-03-28T04:06:09.716Z,5.60
2019-03-28T04:08:36.351Z,5.56
2019-03-28T04:11:03.269Z,5.55
2019-03-28T04:13:30.718Z,5.59
2019-03-28T04:15:57.707Z,5.57
2019-03-28T04:18:24.435Z,5.52
2019-03-28T04:20:51.702Z,5.58
2019-03-28T04:23:18.648Z,5.47
2019-03-28T04:25:45.318Z,5.55
2019-03-28T04:28:12.687Z,5.56
2019-03-28T04:30:39.578Z,5.42
2019-03-28T04:33:06.264Z,5.37
2019-03-28T04:35:32.953Z,5.42
2019-03-28T04:37:59.668Z,5.48
2019-03-28T04:40:26.428Z,5.50
2019-03-28T04:42:53.026Z,5.45
2019-03-28T04:45:19.767Z,5.44
2019-03-28T04:47:46.452Z,5.44
2019-03-28T04:50:13.292Z,5.45
2019-03-28T04:52:39.995Z,5.39
2019-03-28T04:55:07.810Z,5.36
2019-03-28T04:57:34.439Z,5.31
2019-03-28T05:00:01.101Z,5.31
2019-03-28T05:02:27.788Z,5.38
2019-03-28T05:04:54.496Z,5.35
2019-03-28T05:07:21.248Z,5.29
2019-03-28T05:09:47.980Z,5.34
2019-03-28T05:12:14.618Z,5.28
2019-03-28T05:14:41.335Z,5.31
2019-03-28T05:17:08.003Z,5.42
2019-03-28T05:19:34.640Z,5.54
2019-03-28T05:22:01.323Z,5.53
2019-03-28T05:24:28.013Z,5.58
2019-03-28T05:26:54.647Z,5.58
2019-03-28T05:29:21.284Z,5.52
2019-03-28T05:31:47.987Z,5.48
2019-03-28T05:34:14.598Z,5.73
2019-03-28T05:36:41.275Z,5.84
2019-03-28T05:39:07.944Z,5.86
2019-03-28T05:41:34.694Z,5.88
2019-03-28T05:44:01.346Z,6.05
2019-03-28T05:46:28.047Z,5.99
2019-03-28T05:48:54.664Z,5.95
2019-03-28T05:51:21.295Z,6.03
2019-03-28T05:53:48.014Z,6.08
2019-03-28T05:56:14.680Z,6.30
2019-03-28T05:58:41.327Z,6.62
2019-03-28T06:01:07.990Z,6.70
2019-03-28T06:03:34.590Z,6.67
2019-03-28T06:06:01.283Z,6.72
2019-03-28T06:08:28.292Z,6.75
2019-03-28T06:10:55.297Z,6.73
2019-03-28T06:13:22.997Z,6.93
2019-03-28T06:15:49.748Z,6.91
2019-03-28T06:18:16.364Z,7.26
2019-03-28T06:20:43.040Z,7.37
2019-03-28T06:23:09.702Z,7.29
2019-03-28T06:25:39.425Z,7.49
2019-03-28T06:28:05.094Z,7.52
2019-03-28T06:30:31.823Z,7.84
2019-03-28T06:32:58.992Z,7.93
2019-03-28T06:35:25.909Z,8.49
2019-03-28T06:37:52.606Z,8.54
2019-03-28T06:40:19.286Z,8.71
2019-03-28T06:42:46.049Z,8.72
2019-03-28T06:45:13.014Z,8.88
2019-03-28T06:47:39.631Z,8.81
2019-03-28T06:50:06.795Z,8.47
2019-03-28T06:52:33.480Z,8.08
2019-03-28T06:55:00.173Z,8.28
2019-03-28T06:57:27.061Z,8.34
2019-03-28T06:59:53.746Z,8.51
2019-03-28T07:02:21.935Z,8.69
2019-03-28T07:04:48.841Z,9.05
2019-03-28T07:07:18.337Z,9.27
2019-03-28T07:09:44.310Z,9.01
2019-03-28T07:12:11.197Z,8.71
2019-03-28T07:14:37.893Z,8.76
2019-03-28T07:17:05.152Z,9.31
2019-03-28T07:19:31.835Z,8.90
2019-03-28T07:21:58.575Z,8.77
2019-03-28T07:24:25.168Z,8.95
2019-03-28T07:26:51.814Z,8.67
2019-03-28T07:29:18.524Z,9.04
2019-03-28T07:31:45.116Z,9.43
2019-03-28T07:34:13.538Z,9.31
2019-03-28T07:36:40.298Z,9.53
2019-03-28T07:39:07.014Z,9.59
2019-03-28T07:41:33.611Z,9.22
2019-03-28T07:44:00.316Z,9.31
2019-03-28T07:46:26.927Z,9.31
2019-03-28T07:48:53.547Z,9.16
2019-03-28T07:51:20.328Z,9.21
2019-03-28T07:53:47.462Z,9.72
2019-03-28T07:56:14.403Z,9.95
2019-03-28T07:58:44.143Z,10.04
2019-03-28T08:01:09.797Z,10.46
2019-03-28T08:03:39.876Z,10.75
2019-03-28T08:06:05.526Z,10.64
2019-03-28T08:08:38.630Z,10.40
2019-03-28T08:11:01.914Z,10.85
2019-03-28T08:13:28.598Z,10.54
2019-03-28T08:15:55.241Z,10.67
2019-03-28T08:18:23.752Z,10.96
2019-03-28T08:20:50.528Z,11.53
2019-03-28T08:23:17.151Z,11.38
2019-03-28T08:25:43.842Z,11.34
2019-03-28T08:28:10.540Z,11.73
2019-03-28T08:30:38.383Z,12.13
2019-03-28T08:33:05.121Z,12.28
2019-03-28T08:35:34.506Z,12.56
2019-03-28T08:38:01.515Z,12.58
2019-03-28T08:40:34.603Z,12.83
2019-03-28T08:43:01.341Z,13.16
2019-03-28T08:45:28.012Z,13.69
2019-03-28T08:47:54.665Z,13.83
2019-03-28T08:50:21.600Z,13.81
2019-03-28T08:52:48.343Z,13.45
2019-03-28T08:55:15.092Z,13.54
2019-03-28T08:57:41.926Z,13.47
2019-03-28T09:00:09.958Z,13.11
2019-03-28T09:02:36.740Z,13.18
2019-03-28T09:05:04.251Z,12.98
2019-03-28T09:07:31.053Z,12.96
2019-03-28T09:09:57.674Z,13.02
2019-03-28T09:12:24.460Z,13.05
2019-03-28T09:14:51.148Z,12.54
2019-03-28T09:17:17.771Z,12.36
2019-03-28T09:19:45.439Z,12.26
2019-03-28T09:22:12.055Z,12.24
2019-03-28T09:24:38.712Z,12.25
2019-03-28T09:27:05.380Z,12.08
2019-03-28T09:29:32.237Z,12.17
2019-03-28T09:31:58.976Z,12.27
2019-03-28T09:34:25.791Z,12.14
2019-03-28T09:36:52.487Z,11.73
2019-03-28T09:39:19.126Z,11.79
2019-03-28T09:41:45.844Z,11.63
2019-03-28T09:44:12.432Z,11.55
2019-03-28T09:46:39.169Z,11.65
2019-03-28T09:49:05.917Z,11.92
2019-03-28T09:51:35.145Z,12.20
2019-03-28T09:54:01.233Z,12.44
2019-03-28T09:56:27.980Z,13.37
2019-03-28T09:58:54.778Z,14.07
2019-03-28T10:01:22.063Z,14.31
2019-03-28T10:03:49.246Z,14.50
2019-03-28T10:06:15.924Z,14.64
2019-03-28T10:08:42.836Z,14.61
2019-03-28T10:11:09.747Z,14.61
2019-03-28T10:13:36.567Z,14.46
2019-03-28T10:16:03.355Z,14.63
2019-03-28T10:18:30.361Z,14.23
2019-03-28T10:20:57.095Z,13.61
2019-03-28T10:23:23.805Z,13.34
2019-03-28T10:25:50.505Z,13.46
2019-03-28T10:28:17.142Z,13.90
2019-03-28T10:30:44.267Z,14.70
2019-03-28T10:33:11.392Z,15.12
2019-03-28T10:35:38.158Z,15.12
2019-03-28T10:38:05.016Z,15.05
2019-03-28T10:40:31.825Z,15.50
2019-03-28T10:42:58.536Z,15.94
2019-03-28T10:45:26.330Z,15.52
2019-03-28T10:47:53.637Z,15.64
2019-03-28T10:50:20.671Z,15.80
2019-03-28T10:52:47.482Z,15.50
2019-03-28T10:55:14.230Z,14.14
2019-03-28T10:57:40.876Z,14.89
2019-03-28T11:00:08.902Z,14.22
2019-03-28T11:02:36.544Z,14.59
2019-03-28T11:05:04.550Z,15.28
2019-03-28T11:07:31.458Z,15.89
2019-03-28T11:09:58.334Z,16.05
2019-03-28T11:12:25.783Z,16.27
2019-03-28T11:14:52.893Z,16.38
2019-03-28T11:17:19.757Z,14.46
2019-03-28T11:19:46.615Z,15.20
2019-03-28T11:22:13.576Z,15.37
2019-03-28T11:24:40.404Z,15.62
2019-03-28T11:27:07.481Z,14.90
2019-03-28T11:29:34.289Z,14.12
2019-03-28T11:32:01.187Z,14.14
2019-03-28T11:34:28.024Z,13.87
2019-03-28T11:36:54.743Z,14.46
2019-03-28T11:39:21.420Z,14.69
2019-03-28T11:41:48.076Z,15.07
2019-03-28T11:44:15.937Z,15.05
2019-03-28T11:46:42.788Z,14.58
2019-03-28T11:49:09.410Z,15.13
2019-03-28T11:51:36.550Z,14.47
2019-03-28T11:54:03.419Z,14.24
2019-03-28T11:56:30.060Z,14.15
2019-03-28T11:58:56.859Z,14.73
2019-03-28T12:01:23.556Z,15.30
2019-03-28T12:03:50.304Z,15.30
2019-03-28T12:06:17.007Z,15.44
2019-03-28T12:08:43.627Z,15.66
2019-03-28T12:11:10.600Z,15.73
2019-03-28T12:13:44.786Z,15.06
2019-03-28T12:16:06.114Z,14.34
2019-03-28T12:18:32.812Z,13.98
2019-03-28T12:20:59.552Z,14.15
2019-03-28T12:23:26.236Z,13.90
2019-03-28T12:25:52.882Z,14.00
2019-03-28T12:28:19.616Z,14.15
2019-03-28T12:30:46.219Z,13.72
2019-03-28T12:33:12.898Z,14.18
2019-03-28T12:35:39.580Z,14.86
2019-03-28T12:38:06.487Z,14.96
2019-03-28T12:40:33.172Z,14.65
2019-03-28T12:42:59.942Z,14.81
2019-03-28T12:45:26.754Z,14.98
2019-03-28T12:47:53.508Z,14.39
2019-03-28T12:50:20.195Z,13.91
2019-03-28T12:52:46.912Z,13.61
2019-03-28T12:55:14.418Z,13.59
2019-03-28T12:57:41.391Z,13.62
2019-03-28T13:00:11.868Z,13.88
2019-03-28T13:02:38.714Z,13.78
2019-03-28T13:05:07.203Z,13.70
2019-03-28T13:07:33.900Z,13.69
2019-03-28T13:10:01.345Z,13.66
2019-03-28T13:12:28.855Z,13.43
2019-03-28T13:14:55.464Z,13.64
2019-03-28T13:17:22.128Z,13.98
2019-03-28T13:19:48.925Z,13.67
2019-03-28T13:22:15.603Z,13.90
2019-03-28T13:24:43.274Z,13.68
2019-03-28T13:27:10.077Z,13.73
2019-03-28T13:29:36.712Z,13.97
2019-03-28T13:32:03.417Z,13.66
2019-03-28T13:34:30.218Z,13.97
2019-03-28T13:36:57.302Z,13.98
2019-03-28T13:39:24.214Z,14.21
2019-03-28T13:41:51.131Z,13.99
2019-03-28T13:44:17.749Z,14.03
2019-03-28T13:46:44.436Z,13.87
2019-03-28T13:49:11.143Z,13.67
2019-03-28T13:51:38.825Z,13.70
2019-03-28T13:54:05.483Z,14.20
2019-03-28T13:56:32.228Z,14.63
2019-03-28T13:58:58.851Z,14.23
2019-03-28T14:01:26.319Z,14.20
2019-03-28T14:03:53.213Z,13.98
2019-03-28T14:06:19.909Z,14.00
2019-03-28T14:08:46.540Z,14.24
2019-03-28T14:11:13.272Z,14.85
2019-03-28T14:13:39.881Z,14.97
2019-03-28T14:16:06.556Z,15.14
2019-03-28T14:18:33.238Z,15.18
2019-03-28T14:20:59.911Z,15.26
2019-03-28T14:23:26.644Z,15.05
2019-03-28T14:25:53.887Z,15.02
2019-03-28T14:28:20.585Z,15.13
2019-03-28T14:30:47.345Z,15.51
2019-03-28T14:33:15.874Z,15.72
2019-03-28T14:35:42.601Z,15.48
2019-03-28T14:38:09.270Z,15.43
2019-03-28T14:40:35.974Z,15.37
2019-03-28T14:43:02.721Z,15.72
2019-03-28T14:45:30.775Z,15.38
2019-03-28T14:47:57.546Z,15.43
2019-03-28T14:50:38.118Z,15.42
2019-03-28T14:53:05.226Z,15.44
2019-03-28T14:55:32.449Z,14.86
2019-03-28T14:58:00.343Z,14.90
2019-03-28T15:00:51.241Z,14.94
2019-03-28T15:03:27.317Z,15.01
2019-03-28T15:05:47.285Z,14.50
2019-03-28T15:08:13.962Z,14.38
2019-03-28T15:10:40.866Z,14.43
2019-03-28T15:13:07.552Z,14.39
2019-03-28T15:15:34.242Z,14.50
2019-03-28T15:18:00.927Z,14.46
2019-03-28T15:20:27.680Z,14.08
2019-03-28T15:22:54.432Z,14.08
2019-03-28T15:25:21.034Z,14.18
2019-03-28T15:27:47.747Z,14.01
2019-03-28T15:30:14.546Z,13.82
2019-03-28T15:32:41.171Z,13.69
2019-03-28T15:35:07.888Z,13.67
2019-03-28T15:37:34.564Z,13.78
2019-03-28T15:40:01.183Z,13.68
2019-03-28T15:42:28.206Z,13.70
2019-03-28T15:44:55.013Z,13.88
2019-03-28T15:47:21.673Z,13.44
2019-03-28T15:49:48.287Z,13.51
2019-03-28T15:52:14.990Z,13.34
2019-03-28T15:54:41.810Z,13.44
2019-03-28T15:57:08.530Z,13.40
2019-03-28T15:59:35.324Z,13.42
2019-03-28T16:02:02.012Z,13.41
2019-03-28T16:04:28.635Z,13.44
2019-03-28T16:06:55.359Z,13.05
2019-03-28T16:09:21.947Z,12.86
2019-03-28T16:12:01.745Z,12.83
2019-03-28T16:14:17.178Z,12.63
2019-03-28T16:16:43.819Z,12.72
2019-03-28T16:19:10.487Z,12.78
2019-03-28T16:21:37.206Z,12.66
2019-03-28T16:24:03.825Z,12.60
2019-03-28T16:26:31.575Z,12.61
2019-03-28T16:28:58.304Z,12.63
2019-03-28T16:31:25.777Z,12.78
2019-03-28T16:34:06.208Z,12.62
2019-03-28T16:36:22.239Z,12.57
2019-03-28T16:38:48.948Z,12.58
2019-03-28T16:41:15.633Z,12.46
2019-03-28T16:43:42.348Z,12.63
2019-03-28T16:46:08.960Z,12.40
2019-03-28T16:48:35.633Z,12.41
2019-03-28T16:51:02.331Z,12.46
2019-03-28T16:53:29.035Z,12.36
2019-03-28T16:55:55.721Z,12.27
2019-03-28T16:58:22.457Z,12.27
2019-03-28T17:00:49.065Z,12.07
2019-03-28T17:03:15.715Z,12.09
2019-03-28T17:05:42.431Z,11.91
2019-03-28T17:08:09.161Z,11.87
2019-03-28T17:10:46.722Z,11.95
2019-03-28T17:13:14.146Z,11.87
2019-03-28T17:15:40.749Z,11.75
2019-03-28T17:18:07.408Z,11.73
2019-03-28T17:20:34.067Z,11.54
2019-03-28T17:23:01.844Z,11.49
2019-03-28T17:25:28.744Z,11.38
2019-03-28T17:27:55.471Z,11.22
2019-03-28T17:30:22.966Z,11.12
2019-03-28T17:32:49.630Z,11.05
2019-03-28T17:35:16.321Z,11.05
2019-03-28T17:37:43.037Z,11.26
2019-03-28T17:40:09.695Z,11.11
2019-03-28T17:42:36.504Z,10.97
2019-03-28T17:45:06.003Z,10.87
2019-03-28T17:47:32.675Z,10.80
2019-03-28T17:49:59.367Z,10.72
2019-03-28T17:52:25.992Z,10.71
2019-03-28T17:54:52.641Z,10.54
2019-03-28T17:57:19.344Z,10.54
2019-03-28T17:59:45.942Z,10.51
2019-03-28T18:02:12.595Z,10.44
2019-03-28T18:04:47.877Z,10.41
2019-03-28T18:07:07.803Z,10.34
2019-03-28T18:09:35.513Z,10.40
2019-03-28T18:12:02.180Z,10.36
2019-03-28T18:14:28.893Z,10.32
2019-03-28T18:16:55.590Z,10.29
2019-03-28T18:19:22.302Z,10.32
2019-03-28T18:22:02.517Z,10.36
2019-03-28T18:24:17.572Z,10.30
2019-03-28T18:26:44.323Z,10.30
2019-03-28T18:29:11.017Z,10.18
2019-03-28T18:31:49.921Z,10.30
2019-03-28T18:34:06.340Z,10.34
2019-03-28T18:36:32.955Z,10.36
2019-03-28T18:38:59.595Z,10.48
2019-03-28T18:41:26.303Z,10.46
2019-03-28T18:43:52.895Z,10.51
2019-03-28T18:46:19.503Z,10.54
2019-03-28T18:48:46.184Z,10.53
2019-03-28T18:51:12.790Z,10.54
2019-03-28T18:53:39.412Z,10.52
2019-03-28T18:56:06.181Z,10.43
2019-03-28T18:58:32.813Z,10.34
2019-03-28T19:01:00.506Z,10.24
2019-03-28T19:03:27.182Z,10.16
2019-03-28T19:05:53.776Z,10.06
2019-03-28T19:08:20.406Z,10.10
2019-03-28T19:10:50.598Z,10.19
2019-03-28T19:13:15.759Z,10.20
2019-03-28T19:15:43.414Z,10.04
2019-03-28T19:18:10.208Z,9.98
2019-03-28T19:20:36.826Z,9.91
2019-03-28T19:23:06.901Z,9.76
2019-03-28T19:25:32.163Z,9.75
2019-03-28T19:27:58.791Z,9.64
2019-03-28T19:30:30.221Z,9.55
2019-03-28T19:32:58.026Z,9.46
2019-03-28T19:35:32.940Z,9.47
2019-03-28T19:37:53.356Z,9.36
2019-03-28T19:40:20.283Z,9.29
2019-03-28T19:42:46.876Z,9.29
2019-03-28T19:45:17.176Z,9.20
2019-03-28T19:47:43.894Z,9.26
2019-03-28T19:50:15.718Z,9.27
2019-03-28T19:52:42.619Z,9.22
2019-03-28T19:55:13.056Z,9.28
2019-03-28T19:57:39.670Z,9.40
2019-03-28T20:00:06.655Z,9.39
2019-03-28T20:02:33.831Z,9.29
2019-03-28T20:05:00.747Z,9.32
2019-03-28T20:07:27.456Z,9.41
2019-03-28T20:09:57.317Z,9.55
2019-03-28T20:12:23.735Z,9.59
2019-03-28T20:14:50.390Z,9.65
2019-03-28T20:17:17.738Z,9.67
2019-03-28T20:19:44.479Z,9.68
2019-03-28T20:22:11.163Z,9.74
2019-03-28T20:24:37.832Z,9.88
2019-03-28T20:27:04.479Z,9.96
2019-03-28T20:29:33.366Z,9.95
2019-03-28T20:31:59.734Z,9.92
2019-03-28T20:34:26.403Z,9.99
2019-03-28T20:36:53.399Z,9.95
2019-03-28T20:39:21.308Z,10.02
2019-03-28T20:41:47.936Z,9.98
2019-03-28T20:44:14.554Z,9.99
2019-03-28T20:46:41.273Z,10.00
2019-03-28T20:49:08.947Z,10.07
2019-03-28T20:51:35.819Z,10.00
2019-03-28T20:54:03.688Z,9.99
2019-03-28T20:56:30.594Z,9.92
2019-03-28T20:58:57.272Z,10.00
2019-03-28T21:01:23.946Z,9.99
2019-03-28T21:03:50.879Z,9.95
2019-03-28T21:06:19.611Z,10.00
2019-03-28T21:08:46.758Z,10.05
2019-03-28T21:11:13.371Z,10.10
2019-03-28T21:13:40.052Z,10.16
2019-03-28T21:16:06.736Z,10.23
2019-03-28T21:18:33.358Z,10.21
2019-03-28T21:21:00.059Z,10.35
2019-03-28T21:23:26.748Z,10.36
2019-03-28T21:25:53.398Z,10.26
2019-03-28T21:28:20.030Z,10.34
2019-03-28T21:30:47.960Z,10.36
2019-03-28T21:33:15.494Z,10.34
2019-03-28T21:35:42.288Z,10.29
2019-03-28T21:38:09.047Z,10.32
2019-03-28T21:40:35.661Z,10.28
2019-03-28T21:43:02.331Z,10.34
2019-03-28T21:45:29.100Z,10.30
2019-03-28T21:47:55.816Z,10.22
2019-03-28T21:50:22.438Z,10.20
2019-03-28T21:52:49.179Z,10.21
2019-03-28T21:55:16.834Z,10.27
2019-03-28T21:57:43.633Z,10.21
2019-03-28T22:00:10.919Z,10.20
2019-03-28T22:02:37.581Z,10.16
2019-03-28T22:05:05.342Z,10.19
2019-03-28T22:07:32.060Z,10.17
2019-03-28T22:09:58.674Z,10.18
2019-03-28T22:12:25.345Z,10.16
2019-03-28T22:14:52.050Z,10.15
2019-03-28T22:17:18.712Z,10.17
2019-03-28T22:19:45.335Z,10.11
2019-03-28T22:22:12.045Z,10.11
2019-03-28T22:24:39.280Z,10.19
2019-03-28T22:27:06.170Z,10.16
2019-03-28T22:29:32.941Z,10.15
2019-03-28T22:31:59.549Z,10.09
2019-03-28T22:34:26.245Z,10.16
2019-03-28T22:36:57.546Z,10.13
2019-03-28T22:39:22.739Z,10.22
2019-03-28T22:41:49.544Z,10.24
2019-03-28T22:44:16.265Z,10.18
2019-03-28T22:46:42.852Z,10.12
2019-03-28T22:49:09.545Z,10.09
2019-03-28T22:51:36.210Z,10.07
2019-03-28T22:54:02.852Z,10.08
2019-03-28T22:56:29.557Z,10.06
2019-03-28T22:58:56.241Z,10.07
2019-03-28T23:01:22.885Z,10.17
2019-03-28T23:03:51.313Z,10.16
2019-03-28T23:06:18.040Z,10.14
2019-03-28T23:08:44.659Z,10.18
2019-03-28T23:11:11.318Z,10.15
2019-03-28T23:13:38.089Z,10.08
2019-03-28T23:16:04.734Z,10.05
2019-03-28T23:18:31.379Z,10.03
2019-03-28T23:20:58.083Z,9.97
2019-03-28T23:23:25.893Z,10.04
2019-03-28T23:25:52.741Z,9.98
2019-03-28T23:28:19.463Z,10.09
2019-03-28T23:30:46.088Z,10.16
2019-03-28T23:33:12.733Z,10.09
2019-03-28T23:35:40.210Z,9.91
2019-03-28T23:38:06.982Z,9.98
2019-03-28T23:40:33.634Z,10.02
2019-03-28T23:43:00.332Z,10.08
2019-03-28T23:45:26.940Z,10.04
2019-03-28T23:47:53.624Z,10.11
2019-03-28T23:50:20.298Z,10.15
2019-03-28T23:52:47.022Z,10.17
2019-03-28T23:55:14.743Z,10.06
2019-03-28T23:57:41.459Z,9.95
